sensor_id;sensor_type;location;lat;lon;timestamp;P1;durP1;ratioP1;P2;durP2;ratioP2
75285;SDS011;63879;46.064;14.532;2023-12-20T07:01:50;6.05;;;5.57;;
75285;SDS011;63879;46.064;14.532;2023-12-20T07:04:16;20.35;;;7.10;;
75285;SDS011;63879;46.064;14.532;2023-12-20T07:06:45;15.55;;;8.82;;
75285;SDS011;63879;46.064;14.532;2023-12-20T07:09:10;5.32;;;4.47;;
75285;SDS011;63879;46.064;14.532;2023-12-20T07:11:38;8.45;;;7.68;;
75285;SDS011;63879;46.064;14.532;2023-12-20T07:14:03;21.88;;;9.85;;
75285;SDS011;63879;46.064;14.532;2023-12-20T07:16:29;9.90;;;6.53;;
75285;SDS011;63879;46.064;14.532;2023-12-20T07:18:54;16.60;;;9.68;;
75285;SDS011;63879;46.064;14.532;2023-12-20T07:21:21;23.98;;;10.38;;
75285;SDS011;63879;46.064;14.532;2023-12-20T07:23:46;19.52;;;11.80;;
75285;SDS011;63879;46.064;14.532;2023-12-20T07:26:12;10.77;;;8.95;;
75285;SDS011;63879;46.064;14.532;2023-12-20T07:28:38;20.95;;;11.07;;
75285;SDS011;63879;46.064;14.532;2023-12-20T07:31:03;12.10;;;7.75;;
75285;SDS011;63879;46.064;14.532;2023-12-20T07:36:04;12.63;;;7.88;;
75285;SDS011;63879;46.064;14.532;2023-12-20T07:38:29;14.27;;;9.23;;
75285;SDS011;63879;46.064;14.532;2023-12-20T07:40:55;15.27;;;10.48;;
75285;SDS011;63879;46.064;14.532;2023-12-20T07:43:20;13.10;;;6.72;;
75285;SDS011;63879;46.064;14.532;2023-12-20T07:45:46;13.27;;;8.35;;
75285;SDS011;63879;46.064;14.532;2023-12-20T07:48:12;18.38;;;10.68;;
75285;SDS011;63879;46.064;14.532;2023-12-20T07:50:37;15.88;;;12.57;;
75285;SDS011;63879;46.064;14.532;2023-12-20T07:53:03;13.63;;;10.95;;
75285;SDS011;63879;46.064;14.532;2023-12-20T07:55:29;11.75;;;9.73;;
75285;SDS011;63879;46.064;14.532;2023-12-20T07:57:56;17.50;;;7.05;;
75285;SDS011;63879;46.064;14.532;2023-12-20T08:00:21;12.65;;;6.90;;
75285;SDS011;63879;46.064;14.532;2023-12-20T08:02:47;17.52;;;9.23;;
75285;SDS011;63879;46.064;14.532;2023-12-20T08:05:12;18.02;;;9.98;;
75285;SDS011;63879;46.064;14.532;2023-12-20T08:07:38;11.98;;;9.75;;
75285;SDS011;63879;46.064;14.532;2023-12-20T08:10:04;17.88;;;9.07;;
75285;SDS011;63879;46.064;14.532;2023-12-20T08:12:30;17.52;;;9.07;;
75285;SDS011;63879;46.064;14.532;2023-12-20T08:14:55;16.13;;;10.48;;
75285;SDS011;63879;46.064;14.532;2023-12-20T08:17:22;14.02;;;9.70;;
75285;SDS011;63879;46.064;14.532;2023-12-20T08:19:48;18.40;;;9.43;;
75285;SDS011;63879;46.064;14.532;2023-12-20T08:22:14;17.45;;;11.90;;
75285;SDS011;63879;46.064;14.532;2023-12-20T08:24:39;12.40;;;10.82;;
75285;SDS011;63879;46.064;14.532;2023-12-20T08:27:05;14.90;;;9.70;;
75285;SDS011;63879;46.064;14.532;2023-12-20T08:29:30;20.80;;;11.35;;
75285;SDS011;63879;46.064;14.532;2023-12-20T08:31:56;27.13;;;12.57;;
75285;SDS011;63879;46.064;14.532;2023-12-20T08:34:22;19.92;;;10.60;;
75285;SDS011;63879;46.064;14.532;2023-12-20T08:36:48;19.58;;;10.60;;
75285;SDS011;63879;46.064;14.532;2023-12-20T08:39:15;20.25;;;12.68;;
75285;SDS011;63879;46.064;14.532;2023-12-20T08:41:41;21.88;;;11.80;;
75285;SDS011;63879;46.064;14.532;2023-12-20T08:44:06;15.05;;;8.68;;
75285;SDS011;63879;46.064;14.532;2023-12-20T08:46:32;15.23;;;11.88;;
75285;SDS011;63879;46.064;14.532;2023-12-20T08:48:57;15.52;;;10.13;;
75285;SDS011;63879;46.064;14.532;2023-12-20T08:51:22;15.35;;;10.20;;
75285;SDS011;63879;46.064;14.532;2023-12-20T08:53:50;17.83;;;9.77;;
75285;SDS011;63879;46.064;14.532;2023-12-20T08:56:16;13.55;;;8.05;;
75285;SDS011;63879;46.064;14.532;2023-12-20T08:58:43;11.77;;;10.73;;
75285;SDS011;63879;46.064;14.532;2023-12-20T09:01:08;15.80;;;8.82;;
75285;SDS011;63879;46.064;14.532;2023-12-20T09:03:34;16.30;;;9.02;;
75285;SDS011;63879;46.064;14.532;2023-12-20T09:06:00;12.10;;;9.70;;
75285;SDS011;63879;46.064;14.532;2023-12-20T09:08:25;18.92;;;9.85;;
75285;SDS011;63879;46.064;14.532;2023-12-20T09:10:51;17.50;;;11.93;;
75285;SDS011;63879;46.064;14.532;2023-12-20T09:13:16;17.73;;;10.07;;
75285;SDS011;63879;46.064;14.532;2023-12-20T09:15:41;23.42;;;14.13;;
75285;SDS011;63879;46.064;14.532;2023-12-20T09:18:07;16.30;;;9.68;;
75285;SDS011;63879;46.064;14.532;2023-12-20T09:20:33;13.55;;;11.70;;
75285;SDS011;63879;46.064;14.532;2023-12-20T09:22:59;21.08;;;11.55;;
75285;SDS011;63879;46.064;14.532;2023-12-20T09:25:25;17.33;;;12.32;;
75285;SDS011;63879;46.064;14.532;2023-12-20T09:27:51;22.00;;;12.38;;
75285;SDS011;63879;46.064;14.532;2023-12-20T09:30:17;25.33;;;12.65;;
75285;SDS011;63879;46.064;14.532;2023-12-20T09:32:43;15.48;;;11.77;;
75285;SDS011;63879;46.064;14.532;2023-12-20T09:35:10;19.73;;;11.68;;
75285;SDS011;63879;46.064;14.532;2023-12-20T09:37:35;14.80;;;9.20;;
75285;SDS011;63879;46.064;14.532;2023-12-20T09:40:00;17.13;;;11.95;;
75285;SDS011;63879;46.064;14.532;2023-12-20T09:42:33;21.95;;;15.73;;
75285;SDS011;63879;46.064;14.532;2023-12-20T09:45:15;15.07;;;11.15;;
75285;SDS011;63879;46.064;14.532;2023-12-20T09:47:43;22.67;;;14.07;;
75285;SDS011;63879;46.064;14.532;2023-12-20T09:50:09;15.32;;;9.45;;
75285;SDS011;63879;46.064;14.532;2023-12-20T09:52:36;15.60;;;10.20;;
75285;SDS011;63879;46.064;14.532;2023-12-20T09:55:01;16.48;;;11.40;;
75285;SDS011;63879;46.064;14.532;2023-12-20T09:57:30;14.63;;;12.20;;
75285;SDS011;63879;46.064;14.532;2023-12-20T09:59:57;15.02;;;8.90;;
75285;SDS011;63879;46.064;14.532;2023-12-20T10:02:23;18.88;;;11.32;;
75285;SDS011;63879;46.064;14.532;2023-12-20T10:04:52;14.82;;;9.75;;
75285;SDS011;63879;46.064;14.532;2023-12-20T10:07:17;24.63;;;14.68;;
75285;SDS011;63879;46.064;14.532;2023-12-20T10:09:43;20.10;;;11.90;;
75285;SDS011;63879;46.064;14.532;2023-12-20T10:12:09;16.45;;;11.35;;
75285;SDS011;63879;46.064;14.532;2023-12-20T10:14:35;20.30;;;10.73;;
75285;SDS011;63879;46.064;14.532;2023-12-20T10:17:03;21.27;;;12.50;;
75285;SDS011;63879;46.064;14.532;2023-12-20T10:19:31;16.10;;;10.48;;
75285;SDS011;63879;46.064;14.532;2023-12-20T10:21:57;18.65;;;12.07;;
75285;SDS011;63879;46.064;14.532;2023-12-20T10:24:24;18.02;;;12.73;;
75285;SDS011;63879;46.064;14.532;2023-12-20T10:27:00;13.90;;;11.18;;
75285;SDS011;63879;46.064;14.532;2023-12-20T10:29:35;19.98;;;12.60;;
75285;SDS011;63879;46.064;14.532;2023-12-20T10:34:45;26.25;;;12.45;;
75285;SDS011;63879;46.064;14.532;2023-12-20T10:37:11;10.98;;;9.82;;
75285;SDS011;63879;46.064;14.532;2023-12-20T10:39:36;12.63;;;9.43;;
75285;SDS011;63879;46.064;14.532;2023-12-20T10:42:02;19.25;;;12.60;;
75285;SDS011;63879;46.064;14.532;2023-12-20T10:44:28;18.50;;;11.38;;
75285;SDS011;63879;46.064;14.532;2023-12-20T10:46:53;12.48;;;11.15;;
75285;SDS011;63879;46.064;14.532;2023-12-20T10:49:23;16.80;;;10.30;;
75285;SDS011;63879;46.064;14.532;2023-12-20T10:51:49;13.85;;;11.77;;
75285;SDS011;63879;46.064;14.532;2023-12-20T10:54:16;17.08;;;12.23;;
75285;SDS011;63879;46.064;14.532;2023-12-20T10:56:42;14.40;;;10.20;;
75285;SDS011;63879;46.064;14.532;2023-12-20T10:59:07;14.65;;;10.15;;
75285;SDS011;63879;46.064;14.532;2023-12-20T11:01:36;14.98;;;10.20;;
75285;SDS011;63879;46.064;14.532;2023-12-20T11:04:03;17.17;;;10.52;;
75285;SDS011;63879;46.064;14.532;2023-12-20T11:09:22;16.88;;;10.85;;
75285;SDS011;63879;46.064;14.532;2023-12-20T11:14:51;15.68;;;9.98;;
75285;SDS011;63879;46.064;14.532;2023-12-20T11:17:19;13.52;;;8.77;;
75285;SDS011;63879;46.064;14.532;2023-12-20T11:22:22;19.20;;;12.32;;
75285;SDS011;63879;46.064;14.532;2023-12-20T11:24:51;14.02;;;10.73;;
75285;SDS011;63879;46.064;14.532;2023-12-20T11:27:18;16.77;;;9.80;;
75285;SDS011;63879;46.064;14.532;2023-12-20T11:29:49;12.38;;;9.30;;
75285;SDS011;63879;46.064;14.532;2023-12-20T11:34:55;15.68;;;10.18;;
75285;SDS011;63879;46.064;14.532;2023-12-20T11:37:31;15.35;;;11.23;;
75285;SDS011;63879;46.064;14.532;2023-12-20T11:40:00;17.70;;;11.32;;
75285;SDS011;63879;46.064;14.532;2023-12-20T11:42:39;20.33;;;12.60;;
75285;SDS011;63879;46.064;14.532;2023-12-20T11:45:07;22.35;;;13.90;;
75285;SDS011;63879;46.064;14.532;2023-12-20T11:47:34;23.48;;;13.95;;
75285;SDS011;63879;46.064;14.532;2023-12-20T11:50:00;28.17;;;14.23;;
75285;SDS011;63879;46.064;14.532;2023-12-20T11:52:28;19.42;;;13.15;;
75285;SDS011;63879;46.064;14.532;2023-12-20T11:54:54;15.25;;;10.90;;
75285;SDS011;63879;46.064;14.532;2023-12-20T11:57:20;16.95;;;13.27;;
75285;SDS011;63879;46.064;14.532;2023-12-20T11:59:45;21.50;;;12.27;;
75285;SDS011;63879;46.064;14.532;2023-12-20T12:02:14;17.70;;;10.60;;
75285;SDS011;63879;46.064;14.532;2023-12-20T12:04:48;19.23;;;14.05;;
75285;SDS011;63879;46.064;14.532;2023-12-20T12:07:15;18.50;;;12.88;;
75285;SDS011;63879;46.064;14.532;2023-12-20T12:09:41;19.65;;;12.93;;
75285;SDS011;63879;46.064;14.532;2023-12-20T12:12:06;20.85;;;15.52;;
75285;SDS011;63879;46.064;14.532;2023-12-20T12:14:33;19.58;;;12.90;;
75285;SDS011;63879;46.064;14.532;2023-12-20T12:16:58;21.23;;;13.43;;
75285;SDS011;63879;46.064;14.532;2023-12-20T12:19:24;19.58;;;12.38;;
75285;SDS011;63879;46.064;14.532;2023-12-20T12:24:32;21.10;;;11.38;;
75285;SDS011;63879;46.064;14.532;2023-12-20T12:26:57;18.02;;;12.13;;
75285;SDS011;63879;46.064;14.532;2023-12-20T12:29:23;20.58;;;12.57;;
75285;SDS011;63879;46.064;14.532;2023-12-20T12:31:49;16.35;;;12.05;;
75285;SDS011;63879;46.064;14.532;2023-12-20T12:34:15;23.67;;;12.63;;
75285;SDS011;63879;46.064;14.532;2023-12-20T12:36:42;15.60;;;12.05;;
75285;SDS011;63879;46.064;14.532;2023-12-20T12:39:08;18.08;;;11.45;;
75285;SDS011;63879;46.064;14.532;2023-12-20T12:41:34;14.50;;;10.82;;
75285;SDS011;63879;46.064;14.532;2023-12-20T12:44:00;18.50;;;11.43;;
75285;SDS011;63879;46.064;14.532;2023-12-20T12:46:25;14.18;;;10.70;;
75285;SDS011;63879;46.064;14.532;2023-12-20T12:48:51;20.23;;;13.48;;
75285;SDS011;63879;46.064;14.532;2023-12-20T12:51:16;22.10;;;12.23;;
75285;SDS011;63879;46.064;14.532;2023-12-20T12:53:42;15.38;;;11.60;;
75285;SDS011;63879;46.064;14.532;2023-12-20T12:56:07;18.40;;;11.45;;
75285;SDS011;63879;46.064;14.532;2023-12-20T12:58:33;12.70;;;10.23;;
75285;SDS011;63879;46.064;14.532;2023-12-20T13:00:59;18.08;;;11.40;;
75285;SDS011;63879;46.064;14.532;2023-12-20T13:03:24;21.83;;;13.73;;
75285;SDS011;63879;46.064;14.532;2023-12-20T13:05:50;17.13;;;11.85;;
75285;SDS011;63879;46.064;14.532;2023-12-20T13:08:16;17.50;;;10.82;;
75285;SDS011;63879;46.064;14.532;2023-12-20T13:10:41;11.98;;;10.20;;
75285;SDS011;63879;46.064;14.532;2023-12-20T13:13:07;18.83;;;12.00;;
75285;SDS011;63879;46.064;14.532;2023-12-20T13:15:32;16.23;;;10.38;;
75285;SDS011;63879;46.064;14.532;2023-12-20T13:17:58;16.60;;;12.18;;
75285;SDS011;63879;46.064;14.532;2023-12-20T13:20:25;12.95;;;10.07;;
75285;SDS011;63879;46.064;14.532;2023-12-20T13:22:50;18.98;;;12.43;;
75285;SDS011;63879;46.064;14.532;2023-12-20T13:25:16;17.35;;;11.70;;
75285;SDS011;63879;46.064;14.532;2023-12-20T13:27:41;16.27;;;12.20;;
75285;SDS011;63879;46.064;14.532;2023-12-20T13:30:07;12.70;;;10.48;;
75285;SDS011;63879;46.064;14.532;2023-12-20T13:32:32;13.88;;;10.00;;
75285;SDS011;63879;46.064;14.532;2023-12-20T13:34:58;19.30;;;11.63;;
75285;SDS011;63879;46.064;14.532;2023-12-20T13:37:23;16.85;;;13.52;;
75285;SDS011;63879;46.064;14.532;2023-12-20T13:39:49;18.40;;;15.43;;
75285;SDS011;63879;46.064;14.532;2023-12-20T13:42:14;16.40;;;11.77;;
75285;SDS011;63879;46.064;14.532;2023-12-20T13:44:40;15.40;;;11.90;;
75285;SDS011;63879;46.064;14.532;2023-12-20T13:47:05;16.92;;;11.20;;
75285;SDS011;63879;46.064;14.532;2023-12-20T13:49:31;14.32;;;11.68;;
75285;SDS011;63879;46.064;14.532;2023-12-20T13:51:57;15.23;;;11.32;;
75285;SDS011;63879;46.064;14.532;2023-12-20T13:54:23;14.45;;;8.93;;
75285;SDS011;63879;46.064;14.532;2023-12-20T13:56:49;14.13;;;9.73;;
75285;SDS011;63879;46.064;14.532;2023-12-20T13:59:15;13.55;;;8.82;;
75285;SDS011;63879;46.064;14.532;2023-12-20T14:01:41;11.70;;;8.88;;
75285;SDS011;63879;46.064;14.532;2023-12-20T14:04:06;15.10;;;12.63;;
75285;SDS011;63879;46.064;14.532;2023-12-20T14:06:32;14.52;;;10.82;;
75285;SDS011;63879;46.064;14.532;2023-12-20T14:08:58;15.18;;;10.90;;
75285;SDS011;63879;46.064;14.532;2023-12-20T14:11:27;12.30;;;9.93;;
75285;SDS011;63879;46.064;14.532;2023-12-20T14:13:52;12.38;;;10.10;;
75285;SDS011;63879;46.064;14.532;2023-12-20T14:16:22;11.82;;;10.13;;
75285;SDS011;63879;46.064;14.532;2023-12-20T14:18:49;16.05;;;9.57;;
75285;SDS011;63879;46.064;14.532;2023-12-20T14:21:15;15.95;;;11.68;;
75285;SDS011;63879;46.064;14.532;2023-12-20T14:23:40;12.00;;;8.40;;
75285;SDS011;63879;46.064;14.532;2023-12-20T14:26:06;13.77;;;10.40;;
75285;SDS011;63879;46.064;14.532;2023-12-20T14:28:31;16.98;;;11.93;;
75285;SDS011;63879;46.064;14.532;2023-12-20T14:30:57;12.98;;;9.20;;
75285;SDS011;63879;46.064;14.532;2023-12-20T14:33:22;11.90;;;9.23;;
75285;SDS011;63879;46.064;14.532;2023-12-20T14:35:48;17.55;;;11.00;;
75285;SDS011;63879;46.064;14.532;2023-12-20T14:38:13;16.23;;;10.02;;
75285;SDS011;63879;46.064;14.532;2023-12-20T14:40:40;16.33;;;10.23;;
75285;SDS011;63879;46.064;14.532;2023-12-20T14:43:05;23.13;;;13.00;;
75285;SDS011;63879;46.064;14.532;2023-12-20T14:45:31;17.95;;;13.18;;
75285;SDS011;63879;46.064;14.532;2023-12-20T14:47:57;18.15;;;12.93;;
75285;SDS011;63879;46.064;14.532;2023-12-20T14:50:23;15.23;;;11.55;;
75285;SDS011;63879;46.064;14.532;2023-12-20T14:52:49;20.88;;;13.45;;
75285;SDS011;63879;46.064;14.532;2023-12-20T14:55:15;14.27;;;10.48;;
75285;SDS011;63879;46.064;14.532;2023-12-20T14:57:41;15.68;;;13.13;;
75285;SDS011;63879;46.064;14.532;2023-12-20T15:00:07;25.13;;;16.25;;
75285;SDS011;63879;46.064;14.532;2023-12-20T15:02:32;27.10;;;15.68;;
75285;SDS011;63879;46.064;14.532;2023-12-20T15:04:58;17.58;;;13.48;;
75285;SDS011;63879;46.064;14.532;2023-12-20T15:07:23;18.45;;;12.52;;
75285;SDS011;63879;46.064;14.532;2023-12-20T15:09:49;18.15;;;11.65;;
75285;SDS011;63879;46.064;14.532;2023-12-20T15:12:14;17.20;;;12.75;;
75285;SDS011;63879;46.064;14.532;2023-12-20T15:14:40;15.73;;;13.40;;
75285;SDS011;63879;46.064;14.532;2023-12-20T15:17:06;16.30;;;11.30;;
75285;SDS011;63879;46.064;14.532;2023-12-20T15:19:31;21.38;;;10.65;;
75285;SDS011;63879;46.064;14.532;2023-12-20T15:21:57;22.88;;;11.70;;
75285;SDS011;63879;46.064;14.532;2023-12-20T15:24:24;16.85;;;14.10;;
75285;SDS011;63879;46.064;14.532;2023-12-20T15:27:02;21.35;;;14.43;;
75285;SDS011;63879;46.064;14.532;2023-12-20T15:29:28;17.90;;;13.15;;
75285;SDS011;63879;46.064;14.532;2023-12-20T15:31:54;19.73;;;11.77;;
75285;SDS011;63879;46.064;14.532;2023-12-20T15:34:19;17.73;;;13.60;;
75285;SDS011;63879;46.064;14.532;2023-12-20T15:36:45;20.25;;;14.82;;
75285;SDS011;63879;46.064;14.532;2023-12-20T15:39:10;20.27;;;11.82;;
75285;SDS011;63879;46.064;14.532;2023-12-20T15:41:39;22.92;;;13.35;;
75285;SDS011;63879;46.064;14.532;2023-12-20T15:44:04;16.00;;;12.13;;
75285;SDS011;63879;46.064;14.532;2023-12-20T15:46:30;18.60;;;13.73;;
75285;SDS011;63879;46.064;14.532;2023-12-20T15:48:55;21.52;;;16.23;;
75285;SDS011;63879;46.064;14.532;2023-12-20T15:51:21;28.83;;;15.77;;
75285;SDS011;63879;46.064;14.532;2023-12-20T15:53:47;20.20;;;13.27;;
75285;SDS011;63879;46.064;14.532;2023-12-20T15:56:13;21.92;;;13.43;;
75285;SDS011;63879;46.064;14.532;2023-12-20T15:58:38;16.20;;;13.93;;
75285;SDS011;63879;46.064;14.532;2023-12-20T16:01:04;20.17;;;13.75;;
75285;SDS011;63879;46.064;14.532;2023-12-20T16:03:29;17.92;;;13.02;;
75285;SDS011;63879;46.064;14.532;2023-12-20T16:05:55;16.90;;;12.73;;
75285;SDS011;63879;46.064;14.532;2023-12-20T16:08:20;20.75;;;14.00;;
75285;SDS011;63879;46.064;14.532;2023-12-20T16:10:46;15.45;;;12.50;;
75285;SDS011;63879;46.064;14.532;2023-12-20T16:13:11;26.58;;;14.40;;
75285;SDS011;63879;46.064;14.532;2023-12-20T16:15:37;24.20;;;15.88;;
75285;SDS011;63879;46.064;14.532;2023-12-20T16:18:02;16.92;;;14.15;;
75285;SDS011;63879;46.064;14.532;2023-12-20T16:22:56;17.85;;;12.85;;
75285;SDS011;63879;46.064;14.532;2023-12-20T16:25:22;20.90;;;13.80;;
75285;SDS011;63879;46.064;14.532;2023-12-20T16:27:48;15.75;;;12.93;;
75285;SDS011;63879;46.064;14.532;2023-12-20T16:30:13;20.38;;;15.07;;
75285;SDS011;63879;46.064;14.532;2023-12-20T16:32:39;19.30;;;12.43;;
75285;SDS011;63879;46.064;14.532;2023-12-20T16:35:05;19.85;;;13.98;;
75285;SDS011;63879;46.064;14.532;2023-12-20T16:37:30;27.85;;;14.98;;
75285;SDS011;63879;46.064;14.532;2023-12-20T16:39:56;28.55;;;16.52;;
75285;SDS011;63879;46.064;14.532;2023-12-20T16:42:21;22.42;;;16.20;;
75285;SDS011;63879;46.064;14.532;2023-12-20T16:44:47;20.38;;;15.52;;
75285;SDS011;63879;46.064;14.532;2023-12-20T16:47:12;22.00;;;13.77;;
75285;SDS011;63879;46.064;14.532;2023-12-20T16:49:38;21.23;;;14.50;;
75285;SDS011;63879;46.064;14.532;2023-12-20T16:52:03;23.70;;;14.38;;
75285;SDS011;63879;46.064;14.532;2023-12-20T16:54:29;22.20;;;18.38;;
75285;SDS011;63879;46.064;14.532;2023-12-20T16:56:55;24.75;;;19.67;;
75285;SDS011;63879;46.064;14.532;2023-12-20T16:59:21;27.20;;;20.50;;
75285;SDS011;63879;46.064;14.532;2023-12-20T17:01:46;26.92;;;15.98;;
75285;SDS011;63879;46.064;14.532;2023-12-20T17:04:13;19.27;;;16.05;;
75285;SDS011;63879;46.064;14.532;2023-12-20T17:06:39;25.45;;;14.02;;
75285;SDS011;63879;46.064;14.532;2023-12-20T17:09:05;27.15;;;19.23;;
75285;SDS011;63879;46.064;14.532;2023-12-20T17:11:32;25.67;;;19.38;;
75285;SDS011;63879;46.064;14.532;2023-12-20T17:13:58;16.90;;;12.05;;
75285;SDS011;63879;46.064;14.532;2023-12-20T17:16:23;23.00;;;16.65;;
75285;SDS011;63879;46.064;14.532;2023-12-20T17:18:49;20.58;;;15.68;;
75285;SDS011;63879;46.064;14.532;2023-12-20T17:21:15;32.10;;;17.42;;
75285;SDS011;63879;46.064;14.532;2023-12-20T17:23:41;31.42;;;17.50;;
75285;SDS011;63879;46.064;14.532;2023-12-20T17:26:08;26.63;;;15.45;;
75285;SDS011;63879;46.064;14.532;2023-12-20T17:28:33;25.33;;;16.80;;
75285;SDS011;63879;46.064;14.532;2023-12-20T17:30:59;33.08;;;20.85;;
75285;SDS011;63879;46.064;14.532;2023-12-20T17:33:25;14.57;;;12.55;;
75285;SDS011;63879;46.064;14.532;2023-12-20T17:35:51;28.48;;;18.52;;
75285;SDS011;63879;46.064;14.532;2023-12-20T17:38:16;23.70;;;17.23;;
75285;SDS011;63879;46.064;14.532;2023-12-20T17:40:41;25.83;;;15.50;;
75285;SDS011;63879;46.064;14.532;2023-12-20T17:43:07;47.58;;;19.40;;
75285;SDS011;63879;46.064;14.532;2023-12-20T17:45:37;25.10;;;16.77;;
75285;SDS011;63879;46.064;14.532;2023-12-20T17:48:03;30.42;;;20.23;;
75285;SDS011;63879;46.064;14.532;2023-12-20T17:50:29;32.75;;;17.30;;
75285;SDS011;63879;46.064;14.532;2023-12-20T17:52:57;21.33;;;14.48;;
75285;SDS011;63879;46.064;14.532;2023-12-20T17:55:28;25.00;;;18.10;;
75285;SDS011;63879;46.064;14.532;2023-12-20T17:57:54;33.13;;;19.00;;
75285;SDS011;63879;46.064;14.532;2023-12-20T18:00:20;32.08;;;19.88;;
75285;SDS011;63879;46.064;14.532;2023-12-20T18:02:49;24.75;;;18.38;;
75285;SDS011;63879;46.064;14.532;2023-12-20T18:05:16;25.67;;;19.10;;
75285;SDS011;63879;46.064;14.532;2023-12-20T18:07:42;30.48;;;18.15;;
75285;SDS011;63879;46.064;14.532;2023-12-20T18:10:09;33.38;;;19.10;;
75285;SDS011;63879;46.064;14.532;2023-12-20T18:12:34;37.78;;;21.33;;
75285;SDS011;63879;46.064;14.532;2023-12-20T18:15:00;25.80;;;19.02;;
75285;SDS011;63879;46.064;14.532;2023-12-20T18:17:26;25.85;;;20.42;;
75285;SDS011;63879;46.064;14.532;2023-12-20T18:19:52;27.50;;;20.08;;
75285;SDS011;63879;46.064;14.532;2023-12-20T18:22:17;24.38;;;18.17;;
75285;SDS011;63879;46.064;14.532;2023-12-20T18:24:43;29.27;;;16.95;;
75285;SDS011;63879;46.064;14.532;2023-12-20T18:27:09;27.83;;;18.38;;
75285;SDS011;63879;46.064;14.532;2023-12-20T18:29:35;28.52;;;16.08;;
75285;SDS011;63879;46.064;14.532;2023-12-20T18:32:00;25.92;;;18.30;;
75285;SDS011;63879;46.064;14.532;2023-12-20T18:34:26;23.27;;;16.00;;
75285;SDS011;63879;46.064;14.532;2023-12-20T18:36:51;23.23;;;15.27;;
75285;SDS011;63879;46.064;14.532;2023-12-20T18:39:17;21.77;;;13.98;;
75285;SDS011;63879;46.064;14.532;2023-12-20T18:41:43;23.35;;;15.70;;
75285;SDS011;63879;46.064;14.532;2023-12-20T18:44:13;26.52;;;17.77;;
75285;SDS011;63879;46.064;14.532;2023-12-20T18:46:39;22.35;;;15.30;;
75285;SDS011;63879;46.064;14.532;2023-12-20T18:49:04;20.05;;;13.27;;
75285;SDS011;63879;46.064;14.532;2023-12-20T18:51:32;22.38;;;16.67;;
75285;SDS011;63879;46.064;14.532;2023-12-20T18:53:57;33.15;;;17.88;;
75285;SDS011;63879;46.064;14.532;2023-12-20T18:56:23;26.17;;;18.50;;
75285;SDS011;63879;46.064;14.532;2023-12-20T18:58:49;23.73;;;14.38;;
75285;SDS011;63879;46.064;14.532;2023-12-20T19:01:15;31.08;;;18.08;;
75285;SDS011;63879;46.064;14.532;2023-12-20T19:03:40;23.90;;;19.98;;
75285;SDS011;63879;46.064;14.532;2023-12-20T19:06:06;17.80;;;15.98;;
75285;SDS011;63879;46.064;14.532;2023-12-20T19:08:31;29.27;;;16.50;;
75285;SDS011;63879;46.064;14.532;2023-12-20T19:10:57;31.55;;;19.80;;
75285;SDS011;63879;46.064;14.532;2023-12-20T19:13:23;38.40;;;18.65;;
75285;SDS011;63879;46.064;14.532;2023-12-20T19:15:56;22.92;;;16.60;;
75285;SDS011;63879;46.064;14.532;2023-12-20T19:18:25;36.10;;;21.98;;
75285;SDS011;63879;46.064;14.532;2023-12-20T19:20:50;25.20;;;16.85;;
75285;SDS011;63879;46.064;14.532;2023-12-20T19:23:17;25.20;;;18.80;;
75285;SDS011;63879;46.064;14.532;2023-12-20T19:25:43;28.65;;;16.50;;
75285;SDS011;63879;46.064;14.532;2023-12-20T19:28:09;27.33;;;21.48;;
75285;SDS011;63879;46.064;14.532;2023-12-20T19:30:34;22.35;;;14.27;;
75285;SDS011;63879;46.064;14.532;2023-12-20T19:33:00;26.45;;;15.90;;
75285;SDS011;63879;46.064;14.532;2023-12-20T19:35:25;18.48;;;13.50;;
75285;SDS011;63879;46.064;14.532;2023-12-20T19:37:51;19.98;;;12.90;;
75285;SDS011;63879;46.064;14.532;2023-12-20T19:40:16;17.02;;;15.20;;
75285;SDS011;63879;46.064;14.532;2023-12-20T19:42:44;20.67;;;15.55;;
75285;SDS011;63879;46.064;14.532;2023-12-20T19:45:10;19.20;;;11.57;;
75285;SDS011;63879;46.064;14.532;2023-12-20T19:47:36;14.73;;;11.43;;
75285;SDS011;63879;46.064;14.532;2023-12-20T19:50:02;20.05;;;12.15;;
75285;SDS011;63879;46.064;14.532;2023-12-20T19:52:28;21.42;;;14.75;;
75285;SDS011;63879;46.064;14.532;2023-12-20T19:54:54;18.98;;;12.13;;
75285;SDS011;63879;46.064;14.532;2023-12-20T19:57:19;11.45;;;9.93;;
75285;SDS011;63879;46.064;14.532;2023-12-20T19:59:46;20.45;;;11.75;;
75285;SDS011;63879;46.064;14.532;2023-12-20T20:02:13;18.67;;;13.80;;
75285;SDS011;63879;46.064;14.532;2023-12-20T20:04:39;19.00;;;14.48;;
75285;SDS011;63879;46.064;14.532;2023-12-20T20:07:04;14.38;;;9.27;;
75285;SDS011;63879;46.064;14.532;2023-12-20T20:09:34;14.07;;;9.38;;
75285;SDS011;63879;46.064;14.532;2023-12-20T20:12:00;15.30;;;12.10;;
75285;SDS011;63879;46.064;14.532;2023-12-20T20:14:25;14.38;;;10.65;;
75285;SDS011;63879;46.064;14.532;2023-12-20T20:16:52;23.73;;;13.57;;
75285;SDS011;63879;46.064;14.532;2023-12-20T20:19:18;14.32;;;11.80;;
75285;SDS011;63879;46.064;14.532;2023-12-20T20:21:43;12.68;;;9.25;;
75285;SDS011;63879;46.064;14.532;2023-12-20T20:24:09;17.90;;;14.50;;
75285;SDS011;63879;46.064;14.532;2023-12-20T20:26:34;19.60;;;12.70;;
75285;SDS011;63879;46.064;14.532;2023-12-20T20:29:00;20.70;;;13.27;;
75285;SDS011;63879;46.064;14.532;2023-12-20T20:31:25;17.80;;;12.20;;
75285;SDS011;63879;46.064;14.532;2023-12-20T20:33:52;18.25;;;11.23;;
75285;SDS011;63879;46.064;14.532;2023-12-20T20:36:18;15.38;;;13.77;;
75285;SDS011;63879;46.064;14.532;2023-12-20T20:38:43;10.88;;;9.88;;
75285;SDS011;63879;46.064;14.532;2023-12-20T20:41:09;16.10;;;11.80;;
75285;SDS011;63879;46.064;14.532;2023-12-20T20:43:35;14.18;;;10.82;;
75285;SDS011;63879;46.064;14.532;2023-12-20T20:46:00;15.07;;;10.18;;
75285;SDS011;63879;46.064;14.532;2023-12-20T20:48:27;21.27;;;13.68;;
75285;SDS011;63879;46.064;14.532;2023-12-20T20:50:52;19.30;;;12.93;;
75285;SDS011;63879;46.064;14.532;2023-12-20T20:53:19;13.85;;;12.00;;
75285;SDS011;63879;46.064;14.532;2023-12-20T20:55:47;15.23;;;10.10;;
75285;SDS011;63879;46.064;14.532;2023-12-20T20:58:13;11.38;;;9.23;;
75285;SDS011;63879;46.064;14.532;2023-12-20T21:00:38;11.07;;;10.13;;
75285;SDS011;63879;46.064;14.532;2023-12-20T21:03:04;9.88;;;8.07;;
75285;SDS011;63879;46.064;14.532;2023-12-20T21:05:30;12.10;;;9.90;;
75285;SDS011;63879;46.064;14.532;2023-12-20T21:07:55;12.18;;;9.88;;
75285;SDS011;63879;46.064;14.532;2023-12-20T21:10:22;10.77;;;9.85;;
75285;SDS011;63879;46.064;14.532;2023-12-20T21:12:47;8.05;;;7.15;;
75285;SDS011;63879;46.064;14.532;2023-12-20T21:15:13;15.23;;;10.52;;
75285;SDS011;63879;46.064;14.532;2023-12-20T21:17:40;12.27;;;9.40;;
75285;SDS011;63879;46.064;14.532;2023-12-20T21:20:11;10.80;;;9.70;;
75285;SDS011;63879;46.064;14.532;2023-12-20T21:22:37;16.38;;;14.68;;
75285;SDS011;63879;46.064;14.532;2023-12-20T21:25:04;11.70;;;10.52;;
75285;SDS011;63879;46.064;14.532;2023-12-20T21:27:30;19.17;;;10.40;;